createdAt,value
2023-03-04T00:02:13.195Z,15.60
2023-03-04T00:05:14.748Z,14.48
2023-03-04T00:08:16.264Z,16.00
2023-03-04T00:11:17.787Z,14.45
2023-03-04T00:14:19.291Z,15.88
2023-03-04T00:17:20.751Z,14.70
2023-03-04T00:20:22.238Z,14.80
2023-03-04T00:23:23.708Z,13.20
2023-03-04T00:26:25.208Z,13.30
2023-03-04T00:29:26.792Z,12.30
2023-03-04T00:32:28.325Z,14.55
2023-03-04T00:35:29.894Z,15.25
2023-03-04T00:38:31.423Z,16.20
2023-03-04T00:41:32.903Z,13.85
2023-03-04T00:44:34.393Z,14.25
2023-03-04T00:47:35.896Z,14.68
2023-03-04T00:50:37.517Z,14.95
2023-03-04T00:53:38.980Z,13.95
2023-03-04T00:56:40.482Z,13.68
2023-03-04T00:59:43.818Z,14.38
2023-03-04T01:02:45.391Z,14.80
2023-03-04T01:05:46.933Z,13.90
2023-03-04T01:08:48.405Z,15.73
2023-03-04T01:11:49.890Z,12.77
2023-03-04T01:14:51.396Z,14.23
2023-03-04T01:17:52.924Z,13.43
2023-03-04T01:20:54.525Z,14.18
2023-03-04T01:23:56.051Z,14.00
2023-03-04T01:26:57.574Z,13.07
2023-03-04T01:29:59.054Z,13.60
2023-03-04T01:33:00.521Z,14.27
2023-03-04T01:36:02.018Z,13.63
2023-03-04T01:39:03.708Z,14.23
2023-03-04T01:42:05.221Z,13.95
2023-03-04T01:45:07.282Z,13.98
2023-03-04T01:48:09.846Z,13.30
2023-03-04T01:51:13.588Z,12.55
2023-03-04T01:54:16.191Z,14.32
2023-03-04T01:57:19.261Z,14.15
2023-03-04T02:00:26.506Z,13.55
2023-03-04T02:03:27.969Z,14.70
2023-03-04T02:06:29.469Z,14.43
2023-03-04T02:09:31.136Z,12.75
2023-03-04T02:12:32.890Z,12.98
2023-03-04T02:15:34.370Z,13.60
2023-03-04T02:18:35.872Z,13.73
2023-03-04T02:21:37.409Z,14.10
2023-03-04T02:24:50.476Z,15.13
2023-03-04T02:27:51.966Z,14.48
2023-03-04T02:30:53.509Z,13.35
2023-03-04T02:33:56.269Z,14.35
2023-03-04T02:39:59.588Z,12.20
2023-03-04T02:43:01.204Z,14.15
2023-03-04T02:46:02.764Z,15.65
2023-03-04T02:49:04.273Z,15.07
2023-03-04T02:52:06.738Z,12.88
2023-03-04T02:55:09.304Z,13.35
2023-03-04T02:58:11.120Z,14.40
2023-03-04T03:01:12.627Z,14.03
2023-03-04T03:04:14.239Z,13.95
2023-03-04T03:07:15.727Z,12.45
2023-03-04T03:10:17.353Z,13.48
2023-03-04T03:13:19.232Z,12.93
2023-03-04T03:16:20.811Z,12.67
2023-03-04T03:19:22.310Z,13.73
2023-03-04T03:22:24.225Z,13.52
2023-03-04T03:25:25.710Z,14.77
2023-03-04T03:28:27.234Z,14.27
2023-03-04T03:31:28.818Z,14.23
2023-03-04T03:34:30.587Z,13.93
2023-03-04T03:37:32.129Z,13.23
2023-03-04T03:40:33.633Z,13.02
2023-03-04T03:43:35.175Z,13.50
2023-03-04T03:46:36.671Z,15.05
2023-03-04T03:49:38.144Z,14.23
2023-03-04T03:52:39.652Z,13.65
2023-03-04T03:55:41.498Z,12.10
2023-03-04T03:58:43.003Z,13.83
2023-03-04T04:01:44.501Z,14.52
2023-03-04T04:04:45.993Z,12.95
2023-03-04T04:07:47.493Z,12.65
2023-03-04T04:10:49.018Z,14.05
2023-03-04T04:13:50.503Z,13.40
2023-03-04T04:16:52.078Z,13.73
2023-03-04T04:19:53.569Z,14.13
2023-03-04T04:22:55.052Z,13.63
2023-03-04T04:25:56.891Z,13.30
2023-03-04T04:28:58.351Z,23.93
2023-03-04T04:31:59.869Z,26.80
2023-03-04T04:35:01.376Z,39.45
2023-03-04T04:38:02.874Z,56.10
2023-03-04T04:41:04.436Z,36.42
2023-03-04T04:44:05.972Z,23.20
2023-03-04T04:47:07.590Z,22.05
2023-03-04T04:50:09.600Z,17.90
2023-03-04T04:53:12.689Z,16.17
2023-03-04T04:56:16.423Z,16.80
2023-03-04T04:59:17.923Z,15.35
2023-03-04T05:02:19.427Z,14.98
2023-03-04T05:05:20.906Z,13.23
2023-03-04T05:08:22.572Z,16.83
2023-03-04T05:11:24.167Z,14.73
2023-03-04T05:14:25.667Z,24.65
2023-03-04T05:17:27.227Z,24.00
2023-03-04T05:20:28.701Z,19.33
2023-03-04T05:23:32.955Z,15.90
2023-03-04T05:26:35.276Z,15.55
2023-03-04T05:29:36.729Z,14.90
2023-03-04T05:32:38.229Z,15.55
2023-03-04T05:35:40.178Z,20.27
2023-03-04T05:38:41.676Z,27.47
2023-03-04T05:41:43.227Z,25.95
2023-03-04T05:44:44.738Z,27.95
2023-03-04T05:47:46.245Z,23.58
2023-03-04T05:50:47.852Z,21.08
2023-03-04T05:53:49.441Z,17.90
2023-03-04T05:56:50.906Z,14.57
2023-03-04T05:59:52.389Z,14.57
2023-03-04T06:02:54.022Z,13.07
2023-03-04T06:05:55.560Z,13.98
2023-03-04T06:08:57.097Z,15.15
2023-03-04T06:11:58.584Z,14.20
2023-03-04T06:15:00.041Z,14.52
2023-03-04T06:18:01.530Z,13.95
2023-03-04T06:21:03.296Z,14.75
2023-03-04T06:24:05.017Z,14.15
2023-03-04T06:27:06.502Z,13.90
2023-03-04T06:30:08.613Z,13.90
2023-03-04T06:33:10.121Z,15.52
2023-03-04T06:36:11.781Z,15.13
2023-03-04T06:39:13.263Z,14.25
2023-03-04T06:42:14.762Z,14.45
2023-03-04T06:45:16.402Z,13.02
2023-03-04T06:48:17.907Z,16.83
2023-03-04T06:51:19.477Z,19.05
2023-03-04T06:54:20.965Z,17.60
2023-03-04T06:57:22.474Z,18.40
2023-03-04T07:00:24.502Z,15.95
2023-03-04T07:03:26.015Z,12.75
2023-03-04T07:06:28.205Z,15.07
2023-03-04T07:09:29.688Z,16.50
2023-03-04T07:12:31.211Z,19.83
2023-03-04T07:15:32.959Z,18.08
2023-03-04T07:18:34.634Z,16.45
2023-03-04T07:21:36.203Z,17.80
2023-03-04T07:24:37.669Z,17.50
2023-03-04T07:27:40.856Z,17.67
2023-03-04T07:30:42.342Z,18.67
2023-03-04T07:33:43.833Z,18.42
2023-03-04T07:36:45.347Z,17.45
2023-03-04T07:39:46.842Z,18.48
2023-03-04T07:42:52.042Z,17.23
2023-03-04T07:45:58.150Z,19.30
2023-03-04T07:48:59.633Z,17.85
2023-03-04T07:52:04.405Z,19.40
2023-03-04T07:55:06.401Z,19.58
2023-03-04T07:58:07.892Z,21.92
2023-03-04T08:01:10.983Z,24.27
2023-03-04T08:04:15.948Z,20.77
2023-03-04T08:07:17.672Z,20.58
2023-03-04T08:10:19.180Z,21.00
2023-03-04T08:13:20.708Z,21.50
2023-03-04T08:16:23.245Z,20.33
2023-03-04T08:19:25.993Z,19.38
2023-03-04T08:22:27.614Z,22.90
2023-03-04T08:25:29.254Z,20.33
2023-03-04T08:28:30.840Z,21.15
2023-03-04T08:31:32.431Z,19.27
2023-03-04T08:34:33.995Z,18.25
2023-03-04T08:37:35.480Z,18.23
2023-03-04T08:40:36.969Z,21.30
2023-03-04T08:43:38.604Z,20.80
2023-03-04T08:46:41.295Z,22.67
2023-03-04T08:52:44.197Z,21.55
2023-03-04T08:55:45.727Z,19.92
2023-03-04T08:58:47.233Z,20.10
2023-03-04T09:01:48.763Z,19.10
2023-03-04T09:04:50.291Z,18.15
2023-03-04T09:07:51.821Z,22.30
2023-03-04T09:10:54.300Z,21.15
2023-03-04T09:13:55.817Z,21.67
2023-03-04T09:16:57.355Z,22.35
2023-03-04T09:19:58.818Z,19.35
2023-03-04T09:23:00.341Z,20.77
2023-03-04T09:26:01.985Z,19.05
2023-03-04T09:29:03.499Z,16.10
2023-03-04T09:32:05.304Z,21.80
2023-03-04T09:35:07.541Z,21.75
2023-03-04T09:38:09.257Z,20.63
2023-03-04T09:41:17.367Z,21.00
2023-03-04T09:44:42.106Z,19.60
2023-03-04T09:47:43.623Z,20.58
2023-03-04T09:51:07.462Z,19.52
2023-03-04T09:54:10.414Z,19.50
2023-03-04T09:57:52.699Z,19.63
2023-03-04T10:01:13.010Z,15.65
2023-03-04T10:04:18.597Z,19.25
2023-03-04T10:07:22.857Z,20.08
2023-03-04T10:10:30.561Z,18.90
2023-03-04T10:13:38.834Z,18.13
2023-03-04T10:16:43.187Z,19.05
2023-03-04T10:20:07.681Z,18.30
2023-03-04T10:23:10.878Z,20.25
2023-03-04T10:26:14.881Z,22.27
2023-03-04T10:29:17.574Z,18.98
2023-03-04T10:32:19.908Z,20.38
2023-03-04T10:35:21.729Z,20.50
2023-03-04T10:38:23.329Z,20.10
2023-03-04T10:41:26.180Z,19.77
2023-03-04T10:44:27.974Z,21.48
2023-03-04T10:47:31.287Z,19.88
2023-03-04T10:50:32.797Z,18.77
2023-03-04T10:53:38.068Z,19.23
2023-03-04T10:56:42.876Z,19.05
2023-03-04T10:59:46.292Z,19.38
2023-03-04T11:02:48.048Z,19.30
2023-03-04T11:05:49.527Z,18.08
2023-03-04T11:08:55.396Z,13.18
2023-03-04T11:12:00.456Z,17.98
2023-03-04T11:15:02.152Z,19.27
2023-03-04T11:18:05.457Z,18.17
2023-03-04T11:21:07.361Z,18.08
2023-03-04T11:24:29.383Z,17.73
2023-03-04T11:27:44.860Z,17.17
2023-03-04T11:30:50.499Z,18.88
2023-03-04T11:34:16.284Z,15.55
2023-03-04T11:37:32.937Z,17.23
2023-03-04T11:41:03.835Z,17.98
2023-03-04T11:44:06.086Z,16.80
2023-03-04T11:50:30.255Z,18.77
2023-03-04T11:53:51.814Z,18.20
2023-03-04T11:56:56.504Z,18.60
2023-03-04T12:00:37.801Z,20.55
2023-03-04T12:04:02.597Z,19.02
2023-03-04T12:07:04.062Z,20.92
2023-03-04T12:10:33.713Z,15.87
2023-03-04T12:13:42.721Z,21.38
2023-03-04T12:16:49.716Z,18.65
2023-03-04T12:20:14.288Z,21.27
2023-03-04T12:24:06.947Z,19.23
2023-03-04T12:27:32.872Z,18.20
2023-03-04T12:30:57.685Z,19.85
2023-03-04T12:34:31.369Z,18.88
2023-03-04T12:37:45.108Z,19.25
2023-03-04T12:41:30.494Z,19.52
2023-03-04T12:44:34.621Z,15.75
2023-03-04T12:47:53.668Z,20.23
2023-03-04T12:50:59.004Z,16.70
2023-03-04T12:54:26.114Z,18.63
2023-03-04T12:57:31.507Z,20.08
2023-03-04T13:00:48.987Z,18.60
2023-03-04T13:03:55.421Z,17.33
2023-03-04T13:07:15.034Z,15.82
2023-03-04T13:10:18.074Z,17.85
2023-03-04T13:13:40.033Z,17.85
2023-03-04T13:16:48.636Z,18.97
2023-03-04T13:19:57.260Z,19.95
2023-03-04T13:23:05.064Z,19.20
2023-03-04T13:26:33.077Z,19.48
2023-03-04T13:29:34.654Z,19.13
2023-03-04T13:32:38.332Z,19.85
2023-03-04T13:35:49.185Z,19.17
2023-03-04T13:39:00.588Z,20.45
2023-03-04T13:42:02.446Z,20.95
2023-03-04T13:45:04.314Z,20.20
2023-03-04T13:48:08.641Z,21.10
2023-03-04T13:51:29.289Z,21.50
2023-03-04T13:54:32.185Z,19.98
2023-03-04T14:00:47.311Z,19.75
2023-03-04T14:03:48.923Z,22.13
2023-03-04T14:06:54.389Z,22.98
2023-03-04T14:10:08.298Z,20.95
2023-03-04T14:13:09.849Z,20.50
2023-03-04T14:16:11.438Z,21.70
2023-03-04T14:19:26.625Z,20.33
2023-03-04T14:22:29.819Z,21.17
2023-03-04T14:25:36.795Z,21.13
2023-03-04T14:28:46.701Z,20.88
2023-03-04T14:31:48.250Z,21.25
2023-03-04T14:34:49.945Z,21.87
2023-03-04T14:38:04.690Z,19.90
2023-03-04T14:41:34.368Z,19.35
2023-03-04T14:44:38.068Z,19.73
2023-03-04T14:47:41.002Z,19.50
2023-03-04T14:50:49.733Z,19.88
2023-03-04T14:53:57.540Z,19.80
2023-03-04T14:56:59.834Z,20.85
2023-03-04T15:00:20.145Z,21.00
2023-03-04T15:03:31.178Z,19.52
2023-03-04T15:06:34.187Z,19.58
2023-03-04T15:09:36.930Z,23.17
2023-03-04T15:12:38.493Z,27.80
2023-03-04T15:15:44.377Z,21.07
2023-03-04T15:18:55.045Z,24.08
2023-03-04T15:22:06.338Z,21.10
2023-03-04T15:25:12.142Z,20.42
2023-03-04T15:28:20.197Z,19.80
2023-03-04T15:31:23.213Z,17.80
2023-03-04T15:34:24.723Z,19.60
2023-03-04T15:37:27.789Z,19.27
2023-03-04T15:40:31.870Z,18.60
2023-03-04T15:43:33.382Z,18.27
2023-03-04T15:46:34.887Z,17.95
2023-03-04T15:49:36.417Z,19.30
2023-03-04T15:52:39.632Z,17.30
2023-03-04T15:55:41.980Z,27.08
2023-03-04T15:58:43.718Z,22.50
2023-03-04T16:01:45.353Z,23.93
2023-03-04T16:04:46.967Z,20.50
2023-03-04T16:07:49.453Z,19.75
2023-03-04T16:10:51.510Z,22.98
2023-03-04T16:13:53.145Z,23.55
2023-03-04T16:16:54.682Z,16.65
2023-03-04T16:19:56.193Z,21.35
2023-03-04T16:22:59.765Z,19.75
2023-03-04T16:26:01.257Z,15.57
2023-03-04T16:29:03.293Z,15.85
2023-03-04T16:32:04.890Z,17.48
2023-03-04T16:35:06.772Z,16.58
2023-03-04T16:38:34.110Z,12.67
2023-03-04T16:41:37.038Z,16.27
2023-03-04T16:44:38.616Z,15.88
2023-03-04T16:47:40.115Z,14.52
2023-03-04T16:50:41.661Z,16.25
2023-03-04T16:53:44.643Z,16.70
2023-03-04T16:56:46.148Z,16.05
2023-03-04T16:59:47.674Z,19.40
2023-03-04T17:02:59.913Z,17.45
2023-03-04T17:06:01.462Z,17.75
2023-03-04T17:09:02.977Z,16.85
2023-03-04T17:12:08.403Z,18.00
2023-03-04T17:15:10.668Z,16.50
2023-03-04T17:18:12.208Z,17.33
2023-03-04T17:21:16.047Z,16.75
2023-03-04T17:24:17.546Z,16.08
2023-03-04T17:27:19.018Z,18.27
2023-03-04T17:30:20.527Z,18.15
2023-03-04T17:33:22.012Z,18.92
2023-03-04T17:36:23.531Z,17.13
2023-03-04T17:39:25.146Z,18.35
2023-03-04T17:42:26.742Z,16.48
2023-03-04T17:45:28.210Z,18.58
2023-03-04T17:48:29.702Z,17.27
2023-03-04T17:51:35.718Z,17.52
2023-03-04T17:54:39.454Z,16.42
2023-03-04T17:57:41.013Z,19.25
2023-03-04T18:00:42.537Z,17.17
2023-03-04T18:03:44.065Z,17.58
2023-03-04T18:06:46.368Z,17.35
2023-03-04T18:09:47.907Z,16.80
2023-03-04T18:12:49.488Z,15.82
2023-03-04T18:15:51.014Z,16.95
2023-03-04T18:18:57.863Z,17.33
2023-03-04T18:21:59.349Z,17.77
2023-03-04T18:25:00.802Z,16.63
2023-03-04T18:28:02.279Z,16.85
2023-03-04T18:31:03.811Z,16.95
2023-03-04T18:34:05.335Z,17.98
2023-03-04T18:37:06.812Z,16.25
2023-03-04T18:40:09.024Z,16.58
2023-03-04T18:43:10.542Z,14.80
2023-03-04T18:46:27.004Z,15.55
2023-03-04T18:49:28.509Z,16.25
2023-03-04T18:52:30.131Z,16.92
2023-03-04T18:55:31.853Z,15.50
2023-03-04T18:58:34.363Z,17.15
2023-03-04T19:01:35.924Z,14.82
2023-03-04T19:04:37.417Z,14.73
2023-03-04T19:07:38.924Z,13.88
2023-03-04T19:10:40.469Z,14.63
2023-03-04T19:13:41.997Z,17.00
2023-03-04T19:16:43.654Z,18.00
2023-03-04T19:19:45.273Z,17.13
2023-03-04T19:22:46.813Z,16.38
2023-03-04T19:25:48.314Z,17.70
2023-03-04T19:28:49.800Z,16.55
2023-03-04T19:31:51.435Z,17.48
2023-03-04T19:34:53.044Z,15.50
2023-03-04T19:37:54.538Z,16.83
2023-03-04T19:40:56.022Z,16.17
2023-03-04T19:43:57.643Z,14.98
2023-03-04T19:46:59.144Z,15.43
2023-03-04T19:50:00.680Z,16.00
2023-03-04T19:53:02.383Z,19.73
2023-03-04T19:56:03.998Z,18.17
2023-03-04T19:59:05.544Z,17.13
2023-03-04T20:02:07.165Z,18.95
2023-03-04T20:05:09.032Z,19.33
2023-03-04T20:08:10.590Z,19.03
2023-03-04T20:11:12.639Z,16.90
2023-03-04T20:14:14.233Z,17.92
2023-03-04T20:17:15.717Z,16.73
2023-03-04T20:20:17.464Z,20.48
2023-03-04T20:23:20.443Z,17.43
2023-03-04T20:26:21.960Z,17.67
2023-03-04T20:29:23.489Z,14.23
2023-03-04T20:32:25.031Z,16.15
2023-03-04T20:35:26.840Z,16.17
2023-03-04T20:38:28.343Z,16.43
2023-03-04T20:41:29.840Z,15.93
2023-03-04T20:44:31.587Z,17.80
2023-03-04T20:47:33.196Z,15.93
2023-03-04T20:50:34.721Z,14.90
2023-03-04T20:53:36.245Z,14.70
2023-03-04T20:56:37.817Z,15.30
2023-03-04T20:59:39.577Z,14.75
2023-03-04T21:02:41.054Z,14.50
2023-03-04T21:05:42.561Z,14.10
2023-03-04T21:08:44.061Z,15.93
2023-03-04T21:11:45.647Z,16.75
2023-03-04T21:14:47.143Z,17.42
2023-03-04T21:17:49.717Z,19.08
2023-03-04T21:20:51.967Z,18.40
2023-03-04T21:23:54.029Z,17.77
2023-03-04T21:26:55.591Z,17.42
2023-03-04T21:29:57.103Z,17.10
2023-03-04T21:32:58.623Z,15.25
2023-03-04T21:36:00.216Z,13.82
2023-03-04T21:39:01.756Z,16.83
2023-03-04T21:42:03.400Z,15.73
2023-03-04T21:45:06.067Z,15.35
2023-03-04T21:51:12.137Z,12.60
2023-03-04T21:54:13.983Z,16.50
2023-03-04T21:57:15.468Z,16.17
2023-03-04T22:00:17.296Z,17.50
2023-03-04T22:03:19.414Z,16.63
2023-03-04T22:06:22.583Z,13.65
2023-03-04T22:09:24.064Z,14.93
2023-03-04T22:12:25.603Z,14.45
2023-03-04T22:15:27.114Z,16.02
2023-03-04T22:18:28.621Z,14.27
2023-03-04T22:21:30.135Z,15.45
2023-03-04T22:24:31.606Z,14.88
2023-03-04T22:27:33.134Z,14.55
2023-03-04T22:30:34.993Z,14.32
2023-03-04T22:33:37.238Z,14.30
2023-03-04T22:36:40.448Z,14.27
2023-03-04T22:39:42.014Z,13.43
2023-03-04T22:42:43.992Z,14.27
2023-03-04T22:45:45.470Z,17.50
2023-03-04T22:48:48.120Z,16.35
2023-03-04T22:51:49.609Z,16.70
2023-03-04T22:54:51.470Z,16.23
2023-03-04T22:57:52.963Z,15.37
2023-03-04T23:00:54.514Z,16.15
2023-03-04T23:03:56.172Z,16.02
2023-03-04T23:06:57.738Z,16.15
2023-03-04T23:09:59.264Z,14.80
2023-03-04T23:13:00.766Z,14.57
2023-03-04T23:16:03.318Z,15.77
2023-03-04T23:19:05.380Z,15.02
2023-03-04T23:22:06.952Z,14.82
2023-03-04T23:25:08.648Z,15.60
2023-03-04T23:28:10.216Z,11.07
2023-03-04T23:31:14.694Z,15.15
2023-03-04T23:34:16.293Z,14.50
2023-03-04T23:37:17.790Z,15.35
2023-03-04T23:40:19.386Z,14.07
2023-03-04T23:43:20.984Z,14.63
2023-03-04T23:46:23.069Z,13.50
2023-03-04T23:49:24.645Z,11.85
2023-03-04T23:52:26.408Z,14.32
2023-03-04T23:55:28.420Z,15.90
2023-03-04T23:58:29.885Z,14.15
